LFHP/LPY METAR and TAF weather

Enter ICAO airport designator
Station Type Date Time Source
LFHP METAR 2019/02/17 15:30 UTC NOAA

LFHP 171530Z AUTO 15010KT CAVOK 12/M03 Q1023


Station Type Date Time Source
LFHP Decoded METAR 2019/02/17 15:30 UTC NOAA

Le Puy, France (LFHP) 45-05N 003-46E 833M
Feb 17, 2019 - 10:30 AM EST / 2019.02.17 1530 UTC
Wind: from the SSE (150 degrees) at 12 MPH (10 KT):0
Visibility: greater than 7 mile(s):0
Temperature: 53 F (12 C)
Dew Point: 26 F (-3 C)
Relative Humidity: 34%
Pressure (altimeter): 30.21 in. Hg (1023 hPa)
ob: LFHP 171530Z AUTO 15010KT CAVOK 12/M03 Q1023
cycle: 15

Station Type Date Time Source
LFHP TAF UTC NOAA

Error!


Example: see airport list